sensor_id;sensor_type;location;lat;lon;timestamp;pressure;altitude;pressure_sealevel;temperature;humidity
60061;BME280;45933;51.336;12.612;2022-07-24T00:00:24;100323.19;;;19.74;46.70
60061;BME280;45933;51.336;12.612;2022-07-24T00:02:50;100327.72;;;19.71;46.95
60061;BME280;45933;51.336;12.612;2022-07-24T00:05:15;100322.69;;;19.65;47.26
60061;BME280;45933;51.336;12.612;2022-07-24T00:07:41;100324.69;;;19.58;47.63
60061;BME280;45933;51.336;12.612;2022-07-24T00:10:07;100323.06;;;19.54;47.82
60061;BME280;45933;51.336;12.612;2022-07-24T00:12:33;100325.09;;;19.47;47.94
60061;BME280;45933;51.336;12.612;2022-07-24T00:14:58;100322.63;;;19.43;47.86
60061;BME280;45933;51.336;12.612;2022-07-24T00:17:24;100328.00;;;19.40;48.00
60061;BME280;45933;51.336;12.612;2022-07-24T00:19:49;100322.97;;;19.33;48.16
60061;BME280;45933;51.336;12.612;2022-07-24T00:22:15;100323.09;;;19.30;48.19
60061;BME280;45933;51.336;12.612;2022-07-24T00:24:40;100320.63;;;19.26;48.56
60061;BME280;45933;51.336;12.612;2022-07-24T00:27:06;100321.56;;;19.23;48.09
60061;BME280;45933;51.336;12.612;2022-07-24T00:29:32;100323.59;;;19.17;48.03
60061;BME280;45933;51.336;12.612;2022-07-24T00:31:57;100331.75;;;19.11;48.14
60061;BME280;45933;51.336;12.612;2022-07-24T00:34:23;100318.78;;;19.04;48.54
60061;BME280;45933;51.336;12.612;2022-07-24T00:36:48;100328.69;;;18.98;48.53
60061;BME280;45933;51.336;12.612;2022-07-24T00:39:13;100328.13;;;18.90;48.75
60061;BME280;45933;51.336;12.612;2022-07-24T00:41:39;100333.34;;;18.91;48.41
60061;BME280;45933;51.336;12.612;2022-07-24T00:44:07;100337.06;;;18.86;49.21
60061;BME280;45933;51.336;12.612;2022-07-24T00:46:34;100335.41;;;18.83;48.92
60061;BME280;45933;51.336;12.612;2022-07-24T00:49:00;100340.06;;;18.75;48.83
60061;BME280;45933;51.336;12.612;2022-07-24T00:51:26;100332.22;;;18.73;49.02
60061;BME280;45933;51.336;12.612;2022-07-24T00:53:52;100335.94;;;18.68;49.18
60061;BME280;45933;51.336;12.612;2022-07-24T00:56:19;100348.41;;;18.63;49.32
60061;BME280;45933;51.336;12.612;2022-07-24T00:58:46;100341.59;;;18.55;49.49
60061;BME280;45933;51.336;12.612;2022-07-24T01:01:11;100342.56;;;18.53;49.54
60061;BME280;45933;51.336;12.612;2022-07-24T01:03:37;100346.28;;;18.47;49.83
60061;BME280;45933;51.336;12.612;2022-07-24T01:06:02;100350.78;;;18.44;50.34
60061;BME280;45933;51.336;12.612;2022-07-24T01:08:28;100352.63;;;18.42;50.09
60061;BME280;45933;51.336;12.612;2022-07-24T01:10:53;100357.13;;;18.38;50.06
60061;BME280;45933;51.336;12.612;2022-07-24T01:13:19;100358.13;;;18.36;50.42
60061;BME280;45933;51.336;12.612;2022-07-24T01:15:47;100365.25;;;18.32;50.83
60061;BME280;45933;51.336;12.612;2022-07-24T01:18:12;100358.28;;;18.29;51.01
60061;BME280;45933;51.336;12.612;2022-07-24T01:20:38;100360.13;;;18.27;50.47
60061;BME280;45933;51.336;12.612;2022-07-24T01:23:04;100356.72;;;18.24;50.67
60061;BME280;45933;51.336;12.612;2022-07-24T01:25:30;100363.84;;;18.22;51.07
60061;BME280;45933;51.336;12.612;2022-07-24T01:27:56;100367.41;;;18.21;50.86
60061;BME280;45933;51.336;12.612;2022-07-24T01:30:22;100363.13;;;18.17;50.94
60061;BME280;45933;51.336;12.612;2022-07-24T01:32:48;100361.50;;;18.13;51.31
60061;BME280;45933;51.336;12.612;2022-07-24T01:35:13;100370.25;;;18.13;50.80
60061;BME280;45933;51.336;12.612;2022-07-24T01:37:38;100368.53;;;18.12;51.12
60061;BME280;45933;51.336;12.612;2022-07-24T01:40:04;100359.97;;;18.06;51.45
60061;BME280;45933;51.336;12.612;2022-07-24T01:42:30;100363.53;;;18.05;51.21
60061;BME280;45933;51.336;12.612;2022-07-24T01:44:55;100361.81;;;18.03;51.37
60061;BME280;45933;51.336;12.612;2022-07-24T01:47:21;100368.94;;;18.00;51.44
60061;BME280;45933;51.336;12.612;2022-07-24T01:49:46;100365.59;;;17.95;51.71
60061;BME280;45933;51.336;12.612;2022-07-24T01:52:12;100368.22;;;17.95;51.73
60061;BME280;45933;51.336;12.612;2022-07-24T01:54:37;100358.72;;;17.89;51.73
60061;BME280;45933;51.336;12.612;2022-07-24T01:57:03;100366.72;;;17.86;52.00
60061;BME280;45933;51.336;12.612;2022-07-24T01:59:28;100365.09;;;17.82;52.34
60061;BME280;45933;51.336;12.612;2022-07-24T02:01:54;100371.38;;;17.78;52.14
60061;BME280;45933;51.336;12.612;2022-07-24T02:04:19;100355.66;;;17.75;51.87
60061;BME280;45933;51.336;12.612;2022-07-24T02:06:44;100364.53;;;17.72;52.12
60061;BME280;45933;51.336;12.612;2022-07-24T02:09:10;100359.25;;;17.71;51.96
60061;BME280;45933;51.336;12.612;2022-07-24T02:11:35;100359.38;;;17.66;52.65
60061;BME280;45933;51.336;12.612;2022-07-24T02:14:01;100359.50;;;17.63;53.13
60061;BME280;45933;51.336;12.612;2022-07-24T02:16:26;100358.69;;;17.61;52.67
60061;BME280;45933;51.336;12.612;2022-07-24T02:18:52;100349.16;;;17.57;52.58
60061;BME280;45933;51.336;12.612;2022-07-24T02:21:18;100357.06;;;17.56;52.73
60061;BME280;45933;51.336;12.612;2022-07-24T02:23:43;100356.25;;;17.54;53.18
60061;BME280;45933;51.336;12.612;2022-07-24T02:26:09;100356.34;;;17.50;53.28
60061;BME280;45933;51.336;12.612;2022-07-24T02:28:34;100351.25;;;17.46;52.84
60061;BME280;45933;51.336;12.612;2022-07-24T02:31:00;100353.91;;;17.44;52.68
60061;BME280;45933;51.336;12.612;2022-07-24T02:33:25;100361.00;;;17.42;53.19
60061;BME280;45933;51.336;12.612;2022-07-24T02:35:50;100359.34;;;17.38;52.97
60061;BME280;45933;51.336;12.612;2022-07-24T02:38:16;100360.31;;;17.36;53.04
60061;BME280;45933;51.336;12.612;2022-07-24T02:40:41;100362.13;;;17.34;52.98
60061;BME280;45933;51.336;12.612;2022-07-24T02:43:06;100369.25;;;17.30;53.05
60061;BME280;45933;51.336;12.612;2022-07-24T02:45:32;100365.84;;;17.27;53.23
60061;BME280;45933;51.336;12.612;2022-07-24T02:47:58;100373.81;;;17.23;53.39
60061;BME280;45933;51.336;12.612;2022-07-24T02:50:26;100378.22;;;17.24;53.59
60061;BME280;45933;51.336;12.612;2022-07-24T02:52:54;100373.09;;;17.18;53.60
60061;BME280;45933;51.336;12.612;2022-07-24T02:55:19;100374.84;;;17.18;53.86
60061;BME280;45933;51.336;12.612;2022-07-24T02:57:45;100370.59;;;17.14;53.99
60061;BME280;45933;51.336;12.612;2022-07-24T03:00:14;100379.31;;;17.16;54.18
60061;BME280;45933;51.336;12.612;2022-07-24T03:02:39;100372.50;;;17.09;54.20
60061;BME280;45933;51.336;12.612;2022-07-24T03:05:05;100376.06;;;17.06;54.41
60061;BME280;45933;51.336;12.612;2022-07-24T03:07:31;100372.56;;;17.06;54.40
60061;BME280;45933;51.336;12.612;2022-07-24T03:09:56;100376.19;;;17.03;54.32
60061;BME280;45933;51.336;12.612;2022-07-24T03:12:22;100373.53;;;17.03;54.09
60061;BME280;45933;51.336;12.612;2022-07-24T03:14:47;100378.00;;;16.99;54.30
60061;BME280;45933;51.336;12.612;2022-07-24T03:17:13;100376.28;;;16.98;54.08
60061;BME280;45933;51.336;12.612;2022-07-24T03:19:38;100376.41;;;16.94;54.39
60061;BME280;45933;51.336;12.612;2022-07-24T03:22:04;100377.31;;;16.93;54.95
60061;BME280;45933;51.336;12.612;2022-07-24T03:24:29;100375.56;;;16.92;54.79
60061;BME280;45933;51.336;12.612;2022-07-24T03:26:55;100370.41;;;16.89;55.25
60061;BME280;45933;51.336;12.612;2022-07-24T03:29:20;100377.41;;;16.90;55.49
60061;BME280;45933;51.336;12.612;2022-07-24T03:31:46;100381.84;;;16.88;55.50
60061;BME280;45933;51.336;12.612;2022-07-24T03:34:11;100384.50;;;16.86;55.77
60061;BME280;45933;51.336;12.612;2022-07-24T03:36:37;100381.88;;;16.86;55.59
60061;BME280;45933;51.336;12.612;2022-07-24T03:39:03;100395.94;;;16.85;55.86
60061;BME280;45933;51.336;12.612;2022-07-24T03:41:29;100388.09;;;16.84;55.95
60061;BME280;45933;51.336;12.612;2022-07-24T03:43:54;100387.25;;;16.83;56.01
60061;BME280;45933;51.336;12.612;2022-07-24T03:46:20;100389.03;;;16.81;56.11
60061;BME280;45933;51.336;12.612;2022-07-24T03:48:46;100387.25;;;16.82;56.38
60061;BME280;45933;51.336;12.612;2022-07-24T03:51:12;100384.66;;;16.80;55.92
60061;BME280;45933;51.336;12.612;2022-07-24T03:53:37;100389.03;;;16.81;55.81
60061;BME280;45933;51.336;12.612;2022-07-24T03:56:07;100390.72;;;16.84;55.88
60061;BME280;45933;51.336;12.612;2022-07-24T03:58:33;100394.28;;;16.83;55.95
60061;BME280;45933;51.336;12.612;2022-07-24T04:00:58;100396.84;;;16.84;56.17
60061;BME280;45933;51.336;12.612;2022-07-24T04:03:24;100383.63;;;16.86;56.09
60061;BME280;45933;51.336;12.612;2022-07-24T04:05:49;100395.09;;;16.85;56.24
60061;BME280;45933;51.336;12.612;2022-07-24T04:08:15;100397.72;;;16.85;56.14
60061;BME280;45933;51.336;12.612;2022-07-24T04:10:40;100394.16;;;16.87;55.98
60061;BME280;45933;51.336;12.612;2022-07-24T04:13:06;100391.41;;;16.90;55.99
60061;BME280;45933;51.336;12.612;2022-07-24T04:15:31;100396.69;;;16.90;56.42
60061;BME280;45933;51.336;12.612;2022-07-24T04:17:57;100394.06;;;16.90;56.23
60061;BME280;45933;51.336;12.612;2022-07-24T04:20:22;100398.34;;;16.94;55.97
60061;BME280;45933;51.336;12.612;2022-07-24T04:22:47;100399.13;;;16.98;55.83
60061;BME280;45933;51.336;12.612;2022-07-24T04:25:13;100394.63;;;17.02;55.76
60061;BME280;45933;51.336;12.612;2022-07-24T04:27:38;100392.78;;;17.05;56.07
60061;BME280;45933;51.336;12.612;2022-07-24T04:30:04;100393.56;;;17.09;56.25
60061;BME280;45933;51.336;12.612;2022-07-24T04:32:30;100391.69;;;17.12;56.05
60061;BME280;45933;51.336;12.612;2022-07-24T04:34:56;100395.97;;;17.16;55.74
60061;BME280;45933;51.336;12.612;2022-07-24T04:37:21;100395.84;;;17.21;55.92
60061;BME280;45933;51.336;12.612;2022-07-24T04:39:47;100394.78;;;17.28;55.31
60061;BME280;45933;51.336;12.612;2022-07-24T04:42:12;100391.16;;;17.32;55.60
60061;BME280;45933;51.336;12.612;2022-07-24T04:44:37;100393.72;;;17.35;55.67
60061;BME280;45933;51.336;12.612;2022-07-24T04:47:03;100381.22;;;17.42;55.76
60061;BME280;45933;51.336;12.612;2022-07-24T04:49:28;100381.91;;;17.48;55.80
60061;BME280;45933;51.336;12.612;2022-07-24T04:51:53;100380.84;;;17.54;55.42
60061;BME280;45933;51.336;12.612;2022-07-24T04:54:19;100385.06;;;17.60;55.65
60061;BME280;45933;51.336;12.612;2022-07-24T04:56:44;100391.03;;;17.66;55.54
60061;BME280;45933;51.336;12.612;2022-07-24T04:59:09;100389.13;;;17.73;55.65
60061;BME280;45933;51.336;12.612;2022-07-24T05:01:35;100381.03;;;17.79;55.82
60061;BME280;45933;51.336;12.612;2022-07-24T05:04:00;100385.25;;;17.85;55.44
60061;BME280;45933;51.336;12.612;2022-07-24T05:06:26;100379.78;;;17.91;55.25
60061;BME280;45933;51.336;12.612;2022-07-24T05:08:51;100391.00;;;17.97;55.65
60061;BME280;45933;51.336;12.612;2022-07-24T05:11:17;100393.47;;;18.03;55.30
60061;BME280;45933;51.336;12.612;2022-07-24T05:13:42;100390.56;;;18.11;54.85
60061;BME280;45933;51.336;12.612;2022-07-24T05:16:08;100392.09;;;18.18;54.99
60061;BME280;45933;51.336;12.612;2022-07-24T05:18:33;100401.56;;;18.25;54.64
60061;BME280;45933;51.336;12.612;2022-07-24T05:20:58;100397.78;;;18.33;54.69
60061;BME280;45933;51.336;12.612;2022-07-24T05:23:24;100403.69;;;18.41;54.28
60061;BME280;45933;51.336;12.612;2022-07-24T05:25:49;100396.50;;;18.46;53.90
60061;BME280;45933;51.336;12.612;2022-07-24T05:28:15;100390.16;;;18.51;54.19
60061;BME280;45933;51.336;12.612;2022-07-24T05:30:40;100393.44;;;18.58;53.81
60061;BME280;45933;51.336;12.612;2022-07-24T05:33:05;100385.38;;;18.63;53.44
60061;BME280;45933;51.336;12.612;2022-07-24T05:35:31;100389.53;;;18.70;53.38
60061;BME280;45933;51.336;12.612;2022-07-24T05:37:56;100387.59;;;18.75;53.44
60061;BME280;45933;51.336;12.612;2022-07-24T05:40:22;100386.44;;;18.84;52.94
60061;BME280;45933;51.336;12.612;2022-07-24T05:42:47;100385.28;;;18.91;52.86
60061;BME280;45933;51.336;12.612;2022-07-24T05:45:13;100384.16;;;18.98;52.52
60061;BME280;45933;51.336;12.612;2022-07-24T05:47:39;100378.72;;;19.02;52.44
60061;BME280;45933;51.336;12.612;2022-07-24T05:50:10;100374.13;;;19.07;51.78
60061;BME280;45933;51.336;12.612;2022-07-24T05:52:36;100367.75;;;19.13;51.38
60061;BME280;45933;51.336;12.612;2022-07-24T05:55:02;100373.72;;;19.20;51.27
60061;BME280;45933;51.336;12.612;2022-07-24T05:57:28;100381.50;;;19.23;51.49
60061;BME280;45933;51.336;12.612;2022-07-24T05:59:54;100379.50;;;19.29;51.34
60061;BME280;45933;51.336;12.612;2022-07-24T06:02:19;100373.19;;;19.33;51.41
60061;BME280;45933;51.336;12.612;2022-07-24T06:04:45;100382.63;;;19.41;51.27
60061;BME280;45933;51.336;12.612;2022-07-24T06:07:10;100381.53;;;19.46;51.13
60061;BME280;45933;51.336;12.612;2022-07-24T06:09:36;100376.88;;;19.53;51.71
60061;BME280;45933;51.336;12.612;2022-07-24T06:12:03;100389.06;;;19.57;50.84
60061;BME280;45933;51.336;12.612;2022-07-24T06:14:29;100384.44;;;19.64;51.25
60061;BME280;45933;51.336;12.612;2022-07-24T06:16:55;100385.03;;;19.70;50.88
60061;BME280;45933;51.336;12.612;2022-07-24T06:19:20;100377.72;;;19.77;50.40
60061;BME280;45933;51.336;12.612;2022-07-24T06:21:45;100379.47;;;19.78;50.02
60061;BME280;45933;51.336;12.612;2022-07-24T06:24:11;100380.84;;;19.88;50.71
60061;BME280;45933;51.336;12.612;2022-07-24T06:26:36;100386.75;;;19.95;50.45
60061;BME280;45933;51.336;12.612;2022-07-24T06:29:01;100378.63;;;19.99;50.01
60061;BME280;45933;51.336;12.612;2022-07-24T06:31:27;100378.38;;;20.05;50.62
60061;BME280;45933;51.336;12.612;2022-07-24T06:33:52;100382.56;;;20.11;50.73
60061;BME280;45933;51.336;12.612;2022-07-24T06:36:18;100376.09;;;20.18;51.15
60061;BME280;45933;51.336;12.612;2022-07-24T06:38:43;100376.06;;;20.20;50.96
60061;BME280;45933;51.336;12.612;2022-07-24T06:41:08;100376.66;;;20.26;50.23
60061;BME280;45933;51.336;12.612;2022-07-24T06:43:34;100379.13;;;20.31;50.11
60061;BME280;45933;51.336;12.612;2022-07-24T06:45:59;100374.44;;;20.37;50.01
60061;BME280;45933;51.336;12.612;2022-07-24T06:48:24;100373.44;;;20.40;48.97
60061;BME280;45933;51.336;12.612;2022-07-24T06:50:50;100374.94;;;20.46;49.12
60061;BME280;45933;51.336;12.612;2022-07-24T06:53:15;100367.72;;;20.51;48.31
60061;BME280;45933;51.336;12.612;2022-07-24T06:55:41;100377.94;;;20.60;48.91
60061;BME280;45933;51.336;12.612;2022-07-24T06:58:06;100380.31;;;20.66;48.96
60061;BME280;45933;51.336;12.612;2022-07-24T07:00:31;100373.84;;;20.73;49.17
60061;BME280;45933;51.336;12.612;2022-07-24T07:02:57;100374.63;;;20.75;49.27
60061;BME280;45933;51.336;12.612;2022-07-24T07:05:22;100382.25;;;20.83;48.75
60061;BME280;45933;51.336;12.612;2022-07-24T07:07:49;100382.84;;;20.89;48.33
60061;BME280;45933;51.336;12.612;2022-07-24T07:10:14;100376.44;;;20.95;47.85
60061;BME280;45933;51.336;12.612;2022-07-24T07:12:40;100379.59;;;21.03;47.94
60061;BME280;45933;51.336;12.612;2022-07-24T07:15:06;100383.75;;;21.09;47.58
60061;BME280;45933;51.336;12.612;2022-07-24T07:17:32;100378.19;;;21.15;47.77
60061;BME280;45933;51.336;12.612;2022-07-24T07:19:57;100376.97;;;21.22;46.38
60061;BME280;45933;51.336;12.612;2022-07-24T07:22:22;100376.72;;;21.28;46.42
60061;BME280;45933;51.336;12.612;2022-07-24T07:24:48;100379.91;;;21.36;46.19
60061;BME280;45933;51.336;12.612;2022-07-24T07:27:13;100389.09;;;21.48;46.33
60061;BME280;45933;51.336;12.612;2022-07-24T07:29:39;100379.91;;;21.55;45.61
60061;BME280;45933;51.336;12.612;2022-07-24T07:32:04;100385.66;;;21.65;45.18
60061;BME280;45933;51.336;12.612;2022-07-24T07:34:30;100385.31;;;21.73;45.52
60061;BME280;45933;51.336;12.612;2022-07-24T07:36:55;100375.84;;;21.86;45.03
60061;BME280;45933;51.336;12.612;2022-07-24T07:39:20;100384.94;;;21.99;44.34
60061;BME280;45933;51.336;12.612;2022-07-24T07:41:46;100380.91;;;22.09;44.06
60061;BME280;45933;51.336;12.612;2022-07-24T07:44:11;100377.78;;;22.20;42.99
60061;BME280;45933;51.336;12.612;2022-07-24T07:46:36;100373.47;;;22.35;42.62
60061;BME280;45933;51.336;12.612;2022-07-24T07:49:02;100383.34;;;22.50;43.05
60061;BME280;45933;51.336;12.612;2022-07-24T07:51:28;100378.44;;;22.60;43.23
60061;BME280;45933;51.336;12.612;2022-07-24T07:53:53;100384.69;;;22.76;42.99
60061;BME280;45933;51.336;12.612;2022-07-24T07:56:19;100382.22;;;22.90;42.43
60061;BME280;45933;51.336;12.612;2022-07-24T07:58:45;100383.13;;;23.07;42.42
60061;BME280;45933;51.336;12.612;2022-07-24T08:01:11;100381.38;;;23.23;43.94
60061;BME280;45933;51.336;12.612;2022-07-24T08:03:36;100374.28;;;23.39;42.82
60061;BME280;45933;51.336;12.612;2022-07-24T08:06:02;100379.28;;;23.61;42.40
60061;BME280;45933;51.336;12.612;2022-07-24T08:08:29;100375.66;;;23.80;43.35
60061;BME280;45933;51.336;12.612;2022-07-24T08:10:54;100370.84;;;24.02;43.17
60061;BME280;45933;51.336;12.612;2022-07-24T08:13:20;100368.75;;;24.23;42.98
60061;BME280;45933;51.336;12.612;2022-07-24T08:15:45;100370.38;;;24.41;41.14
60061;BME280;45933;51.336;12.612;2022-07-24T08:18:11;100368.81;;;24.53;39.48
60061;BME280;45933;51.336;12.612;2022-07-24T08:20:36;100376.56;;;24.72;39.70
60061;BME280;45933;51.336;12.612;2022-07-24T08:23:01;100366.63;;;24.90;38.71
60061;BME280;45933;51.336;12.612;2022-07-24T08:25:27;100365.28;;;24.97;38.39
60061;BME280;45933;51.336;12.612;2022-07-24T08:27:52;100356.97;;;25.17;38.97
60061;BME280;45933;51.336;12.612;2022-07-24T08:30:18;100356.97;;;25.32;38.50
60061;BME280;45933;51.336;12.612;2022-07-24T08:32:44;100347.78;;;25.50;38.62
60061;BME280;45933;51.336;12.612;2022-07-24T08:35:11;100348.34;;;25.69;38.34
60061;BME280;45933;51.336;12.612;2022-07-24T08:37:37;100351.66;;;25.87;38.46
60061;BME280;45933;51.336;12.612;2022-07-24T08:40:04;100340.66;;;26.06;36.96
60061;BME280;45933;51.336;12.612;2022-07-24T08:42:30;100351.81;;;26.25;35.83
60061;BME280;45933;51.336;12.612;2022-07-24T08:44:55;100350.72;;;26.42;35.57
60061;BME280;45933;51.336;12.612;2022-07-24T08:47:21;100352.16;;;26.61;35.29
60061;BME280;45933;51.336;12.612;2022-07-24T08:49:48;100352.06;;;26.75;35.08
60061;BME280;45933;51.336;12.612;2022-07-24T08:52:21;100338.47;;;27.03;35.43
60061;BME280;45933;51.336;12.612;2022-07-24T08:54:47;100328.69;;;27.17;35.56
60061;BME280;45933;51.336;12.612;2022-07-24T08:57:13;100335.09;;;27.27;33.96
60061;BME280;45933;51.336;12.612;2022-07-24T08:59:38;100336.75;;;27.41;32.90
60061;BME280;45933;51.336;12.612;2022-07-24T09:02:04;100330.19;;;27.57;32.97
60061;BME280;45933;51.336;12.612;2022-07-24T09:04:39;100331.06;;;27.71;33.50
60061;BME280;45933;51.336;12.612;2022-07-24T09:07:16;100323.47;;;27.88;34.12
60061;BME280;45933;51.336;12.612;2022-07-24T09:09:44;100324.41;;;28.00;32.99
60061;BME280;45933;51.336;12.612;2022-07-24T09:12:11;100333.44;;;28.10;34.11
60061;BME280;45933;51.336;12.612;2022-07-24T09:14:45;100326.09;;;28.25;32.39
60061;BME280;45933;51.336;12.612;2022-07-24T09:17:17;100330.78;;;28.34;32.51
60061;BME280;45933;51.336;12.612;2022-07-24T09:19:54;100328.91;;;28.48;31.17
60061;BME280;45933;51.336;12.612;2022-07-24T09:22:23;100331.09;;;28.43;30.11
60061;BME280;45933;51.336;12.612;2022-07-24T09:27:37;100330.28;;;28.64;31.25
60061;BME280;45933;51.336;12.612;2022-07-24T09:30:05;100339.34;;;28.75;32.11
60061;BME280;45933;51.336;12.612;2022-07-24T09:32:31;100335.22;;;28.93;31.11
60061;BME280;45933;51.336;12.612;2022-07-24T09:34:57;100326.59;;;29.12;31.97
60061;BME280;45933;51.336;12.612;2022-07-24T09:37:22;100328.81;;;29.29;32.36
60061;BME280;45933;51.336;12.612;2022-07-24T09:39:50;100316.19;;;29.52;31.78
60061;BME280;45933;51.336;12.612;2022-07-24T09:42:16;100324.38;;;29.73;30.56
60061;BME280;45933;51.336;12.612;2022-07-24T09:44:42;100330.28;;;29.99;30.63
60061;BME280;45933;51.336;12.612;2022-07-24T09:47:09;100331.38;;;30.08;30.48
60061;BME280;45933;51.336;12.612;2022-07-24T09:49:36;100317.91;;;30.19;29.56
60061;BME280;45933;51.336;12.612;2022-07-24T09:54:49;100318.66;;;30.42;27.70
60061;BME280;45933;51.336;12.612;2022-07-24T09:57:23;100319.13;;;30.47;26.98
60061;BME280;45933;51.336;12.612;2022-07-24T09:59:54;100308.75;;;30.63;27.81
60061;BME280;45933;51.336;12.612;2022-07-24T10:02:22;100316.97;;;30.62;27.29
60061;BME280;45933;51.336;12.612;2022-07-24T10:04:49;100314.13;;;30.63;26.77
60061;BME280;45933;51.336;12.612;2022-07-24T10:07:18;100320.25;;;30.65;27.71
60061;BME280;45933;51.336;12.612;2022-07-24T10:09:51;100316.22;;;30.71;27.84
60061;BME280;45933;51.336;12.612;2022-07-24T10:12:23;100317.97;;;30.82;27.51
60061;BME280;45933;51.336;12.612;2022-07-24T10:14:51;100305.13;;;30.95;27.36
60061;BME280;45933;51.336;12.612;2022-07-24T10:17:17;100300.41;;;31.08;26.92
60061;BME280;45933;51.336;12.612;2022-07-24T10:19:48;100297.91;;;31.16;27.47
60061;BME280;45933;51.336;12.612;2022-07-24T10:22:15;100294.91;;;31.19;26.35
60061;BME280;45933;51.336;12.612;2022-07-24T10:24:57;100303.38;;;31.36;26.10
60061;BME280;45933;51.336;12.612;2022-07-24T10:27:24;100308.78;;;31.45;26.26
60061;BME280;45933;51.336;12.612;2022-07-24T10:29:52;100300.16;;;31.52;25.22
60061;BME280;45933;51.336;12.612;2022-07-24T10:32:19;100299.78;;;31.66;26.52
60061;BME280;45933;51.336;12.612;2022-07-24T10:45:32;100286.34;;;31.95;25.04
60061;BME280;45933;51.336;12.612;2022-07-24T10:47:58;100279.41;;;32.02;25.36
60061;BME280;45933;51.336;12.612;2022-07-24T10:53:47;100278.38;;;32.32;25.00
60061;BME280;45933;51.336;12.612;2022-07-24T10:59:00;100276.97;;;32.57;25.12
60061;BME280;45933;51.336;12.612;2022-07-24T11:01:49;100273.69;;;32.63;24.75
60061;BME280;45933;51.336;12.612;2022-07-24T11:06:46;100266.13;;;32.76;23.67
60061;BME280;45933;51.336;12.612;2022-07-24T11:09:13;100259.56;;;32.89;23.46
60061;BME280;45933;51.336;12.612;2022-07-24T11:12:02;100256.47;;;33.11;23.93
60061;BME280;45933;51.336;12.612;2022-07-24T11:17:38;100255.44;;;33.22;23.41
60061;BME280;45933;51.336;12.612;2022-07-24T11:20:08;100251.34;;;33.18;22.52
60061;BME280;45933;51.336;12.612;2022-07-24T11:25:13;100240.78;;;33.24;22.51
60061;BME280;45933;51.336;12.612;2022-07-24T11:28:28;100251.03;;;33.21;22.14
60061;BME280;45933;51.336;12.612;2022-07-24T11:30:30;100247.66;;;33.19;22.31
60061;BME280;45933;51.336;12.612;2022-07-24T11:32:56;100242.69;;;33.14;22.01
60061;BME280;45933;51.336;12.612;2022-07-24T11:35:33;100237.03;;;33.35;22.47
60061;BME280;45933;51.336;12.612;2022-07-24T11:38:00;100237.47;;;33.30;22.92
60061;BME280;45933;51.336;12.612;2022-07-24T11:40:26;100235.34;;;33.34;22.59
60061;BME280;45933;51.336;12.612;2022-07-24T11:42:59;100244.44;;;33.33;21.49
60061;BME280;45933;51.336;12.612;2022-07-24T11:45:25;100243.28;;;33.36;21.15
60061;BME280;45933;51.336;12.612;2022-07-24T11:47:51;100234.78;;;33.30;21.73
60061;BME280;45933;51.336;12.612;2022-07-24T11:50:21;100238.72;;;33.36;20.87
60061;BME280;45933;51.336;12.612;2022-07-24T11:52:48;100241.25;;;33.38;21.32
60061;BME280;45933;51.336;12.612;2022-07-24T11:55:18;100231.78;;;33.34;21.63
60061;BME280;45933;51.336;12.612;2022-07-24T11:57:47;100236.88;;;33.37;20.89
60061;BME280;45933;51.336;12.612;2022-07-24T12:00:22;100232.75;;;33.42;22.10
60061;BME280;45933;51.336;12.612;2022-07-24T12:02:49;100235.22;;;33.53;21.25
60061;BME280;45933;51.336;12.612;2022-07-24T12:05:26;100227.84;;;33.55;21.48
60061;BME280;45933;51.336;12.612;2022-07-24T12:07:53;100224.13;;;33.74;21.52
60061;BME280;45933;51.336;12.612;2022-07-24T12:10:20;100227.28;;;33.88;21.58
60061;BME280;45933;51.336;12.612;2022-07-24T12:12:49;100219.34;;;33.86;19.70
60061;BME280;45933;51.336;12.612;2022-07-24T12:15:15;100222.13;;;33.94;20.67
60061;BME280;45933;51.336;12.612;2022-07-24T12:18:04;100213.00;;;34.13;20.90
60061;BME280;45933;51.336;12.612;2022-07-24T12:20:36;100223.63;;;34.06;20.40
60061;BME280;45933;51.336;12.612;2022-07-24T12:23:05;100212.78;;;34.06;19.88
60061;BME280;45933;51.336;12.612;2022-07-24T12:25:31;100206.38;;;34.07;19.73
60061;BME280;45933;51.336;12.612;2022-07-24T12:28:08;100202.41;;;34.20;19.86
60061;BME280;45933;51.336;12.612;2022-07-24T12:30:42;100194.72;;;34.33;20.56
60061;BME280;45933;51.336;12.612;2022-07-24T12:38:30;100177.84;;;34.39;19.35
60061;BME280;45933;51.336;12.612;2022-07-24T12:41:12;100176.78;;;34.58;19.59
60061;BME280;45933;51.336;12.612;2022-07-24T12:43:48;100175.94;;;34.57;19.63
60061;BME280;45933;51.336;12.612;2022-07-24T12:46:16;100171.06;;;34.61;18.79
60061;BME280;45933;51.336;12.612;2022-07-24T12:49:18;100176.19;;;34.72;18.72
60061;BME280;45933;51.336;12.612;2022-07-24T12:56:46;100170.72;;;34.64;17.74
60061;BME280;45933;51.336;12.612;2022-07-24T12:59:27;100174.78;;;34.60;17.40
60061;BME280;45933;51.336;12.612;2022-07-24T13:01:58;100166.31;;;34.63;18.70
60061;BME280;45933;51.336;12.612;2022-07-24T13:04:26;100163.06;;;34.51;17.66
60061;BME280;45933;51.336;12.612;2022-07-24T13:06:54;100160.22;;;34.61;18.18
60061;BME280;45933;51.336;12.612;2022-07-24T13:09:21;100158.19;;;34.63;18.21
60061;BME280;45933;51.336;12.612;2022-07-24T13:11:48;100145.69;;;34.62;17.78
60061;BME280;45933;51.336;12.612;2022-07-24T13:14:16;100143.03;;;34.78;20.40
60061;BME280;45933;51.336;12.612;2022-07-24T13:16:43;100147.00;;;34.92;19.06
60061;BME280;45933;51.336;12.612;2022-07-24T13:19:09;100147.03;;;35.00;17.96